^^
Station Historical Data
Daily Summary for June 4, 2017 Units:  English    Metric   Both
« Previous Day
Next Day »
Daily Weekly Monthly Yearly Custom
  High: Low: Average:
Temperature: 70.0 °F 49.9 °F 59.1 °F
Dew Point: 56.2 °F 42.8 °F 50.1 °F
Humidity: 95% 45% 74%
Wind Speed: 5.0mph 0.0mph 0.5mph
Wind Gust: 9.0mph - -
Wind- - SW
Pressure: 30.04 in 29.85 in -
Precipitation: 0.15 in    
Historical Graphs
 
 
Tabular Data for June 4, 2017
Time Temperature Dew Point Pressure Wind Wind Speed Wind Gust Humidity Rainfall Rate (Hourly) Conditions
00:00 58.5 °F 45.9 °F 30.00 in Calm     63% 0.00 in CLR
00:15 57.0 °F 46.1 °F 30.00 in Calm     67% 0.00 in CLR
00:30 55.8 °F 46.5 °F 30.01 in Calm     71% 0.00 in CLR
00:45 55.1 °F 46.6 °F 30.01 in Calm     73% 0.00 in CLR
01:00 55.1 °F 46.6 °F 30.02 in Calm     73% 0.00 in CLR
02:15 58.6 °F 42.9 °F 30.02 in NE 1.0 mph 3.0 mph 56% 0.00 in CLR
02:30 58.3 °F 43.1 °F 30.02 in Calm   3.0 mph 57% 0.00 in CLR
02:45 58.0 °F 42.8 °F 30.02 in Calm   2.0 mph 57% 0.00 in CLR
03:00 57.3 °F 43.1 °F 30.02 in Calm   2.0 mph 59% 0.00 in CLR
03:15 57.2 °F 43.4 °F 30.02 in Calm   2.0 mph 60% 0.00 in CLR
03:30 56.2 °F 42.9 °F 30.02 in Calm   1.0 mph 61% 0.00 in CLR
03:45 54.4 °F 43.2 °F 30.02 in Calm     66% 0.00 in CLR
04:00 53.4 °F 43.9 °F 30.03 in Calm     70% 0.00 in CLR
04:15 54.9 °F 45.3 °F 30.02 in Calm   2.0 mph 70% 0.00 in CLR
04:30 54.1 °F 45.3 °F 30.02 in Calm   1.0 mph 72% 0.00 in CLR
04:45 53.8 °F 44.9 °F 30.02 in Calm   1.0 mph 72% 0.00 in CLR
05:00 53.3 °F 44.9 °F 30.02 in Calm     73% 0.00 in CLR
05:15 52.9 °F 44.9 °F 30.02 in Calm   1.0 mph 74% 0.00 in CLR
05:30 51.8 °F 44.4 °F 30.02 in Calm     76% 0.00 in CLR
05:45 50.4 °F 44.5 °F 30.03 in Calm     80% 0.00 in CLR
06:00 51.0 °F 45.7 °F 30.02 in Calm     82% 0.00 in CLR
06:15 50.4 °F 45.4 °F 30.02 in Calm     83% 0.00 in CLR
06:30 49.9 °F 45.8 °F 30.03 in Calm     86% 0.00 in CLR
06:45 52.2 °F 47.8 °F 30.03 in Calm     85% 0.00 in CLR
07:00 52.9 °F 47.6 °F 30.04 in Calm   1.0 mph 82% 0.00 in CLR
07:15 53.6 °F 46.9 °F 30.03 in Calm   2.0 mph 78% 0.00 in CLR
07:30 54.6 °F 45.8 °F 30.03 in Calm   2.0 mph 72% 0.00 in CLR
07:45 57.0 °F 45.4 °F 30.03 in Calm   1.0 mph 65% 0.00 in CLR
08:00 60.1 °F 45.7 °F 30.04 in South 1.0 mph 2.0 mph 59% 0.00 in CLR
08:15 61.7 °F 46.7 °F 30.03 in Calm   2.0 mph 58% 0.00 in CLR
08:30 63.7 °F 47.7 °F 30.03 in Calm   2.0 mph 56% 0.00 in CLR
08:45 64.7 °F 46.7 °F 30.04 in Calm   2.0 mph 52% 0.00 in CLR
09:00 66.7 °F 47.5 °F 30.04 in Calm   2.0 mph 50% 0.00 in CLR
09:15 67.8 °F 47.4 °F 30.04 in Calm   2.0 mph 48% 0.00 in CLR
09:30 69.2 °F 48.7 °F 30.03 in Calm   2.0 mph 48% 0.00 in CLR
09:45 69.9 °F 47.6 °F 30.02 in Calm   2.0 mph 45% 0.00 in CLR
10:00 70.0 °F 47.7 °F 30.02 in West 2.0 mph 4.0 mph 45% 0.00 in CLR
10:15 68.1 °F 46.6 °F 30.03 in WNW 2.0 mph 5.0 mph 46% 0.00 in CLR
10:30 67.4 °F 48.1 °F 30.02 in WSW 2.0 mph 5.0 mph 50% 0.00 in CLR
10:45 67.4 °F 49.1 °F 30.02 in Calm   3.0 mph 52% 0.00 in CLR
11:00 67.9 °F 49.6 °F 30.02 in South 1.0 mph 3.0 mph 52% 0.00 in CLR
11:15 68.1 °F 48.8 °F 30.01 in SW 1.0 mph 4.0 mph 50% 0.00 in BKN
11:30 67.9 °F 48.6 °F 30.01 in SSW 2.0 mph 5.0 mph 50% 0.00 in BKN
11:45 68.4 °F 47.4 °F 30.00 in SSW 3.0 mph 5.0 mph 47% 0.00 in BKN
12:00 68.5 °F 48.6 °F 29.99 in SSW 1.0 mph 7.0 mph 49% 0.00 in BKN
12:15 68.8 °F 47.2 °F 29.98 in SW 3.0 mph 7.0 mph 46% 0.00 in BKN
12:30 69.1 °F 48.0 °F 29.98 in SW 2.0 mph 6.0 mph 47% 0.00 in BKN
12:45 68.6 °F 48.7 °F 29.96 in SSW 2.0 mph 5.0 mph 49% 0.00 in BKN
13:00 68.2 °F 48.8 °F 29.96 in South 1.0 mph 5.0 mph 50% 0.00 in BKN
13:15 67.3 °F 49.5 °F 29.97 in SW 2.0 mph 6.0 mph 53% 0.00 in BKN
13:30 65.8 °F 50.6 °F 29.98 in SW 1.0 mph 8.0 mph 58% 0.00 in BKN
13:45 65.0 °F 51.6 °F 29.99 in SSW 5.0 mph 9.0 mph 62% 0.00 in BKN
14:00 62.3 °F 51.6 °F 29.99 in SSW 1.0 mph 9.0 mph 68% 0.00 in BKN
14:15 60.7 °F 53.4 °F 30.00 in Calm   3.0 mph 77% 0.02 in -RA
14:30 59.3 °F 53.5 °F 29.99 in Calm   1.0 mph 81% 0.02 in -RA
14:45 58.6 °F 54.7 °F 29.98 in Calm   2.0 mph 87% 0.01 in -RA
15:00 58.8 °F 55.6 °F 29.98 in Calm   2.0 mph 89% 0.02 in -RA
15:15 59.1 °F 56.2 °F 29.97 in Calm     90% 0.01 in -RA
15:30 59.0 °F 55.8 °F 29.95 in Calm   2.0 mph 89% 0.01 in -RA
15:45 59.1 °F 55.9 °F 29.95 in Calm   2.0 mph 89% 0.01 in -RA
16:00 58.9 °F 56.0 °F 29.93 in Calm   4.0 mph 90% 0.00 in -RA
16:15 58.6 °F 55.1 °F 29.92 in SW 2.0 mph 4.0 mph 88% 0.00 in -RA
16:30 58.3 °F 54.8 °F 29.92 in SW 1.0 mph 7.0 mph 88% 0.00 in -RA
16:45 58.1 °F 54.6 °F 29.91 in WSW 1.0 mph 7.0 mph 88% 0.00 in -RA
17:00 58.2 °F 55.0 °F 29.91 in Calm   4.0 mph 89% 0.00 in -RA
17:15 58.2 °F 54.7 °F 29.91 in SSW 1.0 mph 3.0 mph 88% 0.00 in -RA
17:30 58.2 °F 55.0 °F 29.90 in Calm   2.0 mph 89% 0.01 in -RA
17:45 58.3 °F 55.4 °F 29.89 in Calm   1.0 mph 90% 0.00 in -RA
18:00 58.2 °F 55.3 °F 29.89 in Calm   2.0 mph 90% 0.00 in -RA
18:15 58.3 °F 55.4 °F 29.89 in NNW 1.0 mph 2.0 mph 90% 0.00 in -RA
18:30 58.2 °F 55.9 °F 29.89 in Calm   3.0 mph 92% 0.00 in -RA
18:45 57.9 °F 55.6 °F 29.90 in Calm   1.0 mph 92% 0.00 in -RA
19:00 58.0 °F 56.0 °F 29.90 in Calm   1.0 mph 93% 0.00 in -RA
19:15 57.9 °F 55.9 °F 29.90 in Calm   1.0 mph 93% 0.00 in -RA
19:30 57.7 °F 55.7 °F 29.89 in Calm   2.0 mph 93% 0.00 in -RA
19:45 57.6 °F 55.6 °F 29.89 in Calm   1.0 mph 93% 0.00 in -RA
20:00 57.4 °F 55.4 °F 29.90 in Calm   4.0 mph 93% 0.00 in -RA
20:15 57.0 °F 55.0 °F 29.89 in Calm   3.0 mph 93% 0.00 in BKN
20:30 56.6 °F 54.6 °F 29.89 in NNW 1.0 mph 3.0 mph 93% 0.00 in BKN
20:45 56.4 °F 54.4 °F 29.89 in Calm   1.0 mph 93% 0.00 in BKN
21:00 56.0 °F 54.0 °F 29.89 in Calm   2.0 mph 93% 0.00 in BKN
21:15 55.8 °F 53.8 °F 29.89 in NNW 1.0 mph 3.0 mph 93% 0.00 in BKN
21:30 55.6 °F 53.6 °F 29.89 in Calm   4.0 mph 93% 0.00 in BKN
21:45 55.5 °F 53.5 °F 29.88 in NW 1.0 mph 3.0 mph 93% 0.00 in BKN
22:00 55.5 °F 53.8 °F 29.87 in NNW 1.0 mph 4.0 mph 94% 0.00 in BKN
22:15 55.4 °F 53.7 °F 29.88 in Calm   2.0 mph 94% 0.00 in SCT
22:30 55.3 °F 53.6 °F 29.88 in Calm   2.0 mph 94% 0.00 in SCT
22:45 55.2 °F 53.5 °F 29.86 in NNW 1.0 mph 3.0 mph 94% 0.00 in SCT
23:00 55.2 °F 53.8 °F 29.86 in North 1.0 mph 4.0 mph 95% 0.00 in SCT
23:15 55.3 °F 53.9 °F 29.85 in Calm   5.0 mph 95% 0.00 in BKN
23:30 55.4 °F 54.0 °F 29.85 in Calm   3.0 mph 95% 0.00 in BKN
23:45 55.6 °F 54.2 °F 29.87 in NE 1.0 mph 5.0 mph 95% 0.04 in RA
TarryTown NY Weather
Compliments of Weather Underground - 1.5 mb